KISM/ISM METAR and TAF weather

Enter ICAO airport designator
Station Type Date Time Source
KISM METAR 2020/06/01 15:56 UTC NOAA

KISM 011556Z 07011KT 10SM CLR 30/23 A3011 RMK AO2 SLP195 T03000228 PNO $


Station Type Date Time Source
KISM Decoded METAR 2020/06/01 15:56 UTC NOAA

Orlando, Kissimmee Municipal Airport, FL, United States (KISM) 28-17-23N 081-26-14W
Jun 01, 2020 - 11:56 AM EDT / 2020.06.01 1556 UTC
Wind: from the ENE (070 degrees) at 13 MPH (11 KT):0
Visibility: 10 mile(s):0
Sky conditions: clear
Temperature: 86.0 F (30.0 C)
Heat index: 93.0 F (33.9 C):1
Dew Point: 73.0 F (22.8 C)
Relative Humidity: 65%
Pressure (altimeter): 30.11 in. Hg (1019 hPa)
ob: KISM 011556Z 07011KT 10SM CLR 30/23 A3011 RMK AO2 SLP195 T03000228 PNO
cycle: 16

Station Type Date Time Source
KISM TAF 2020/06/01 12:24 UTC NOAA

TAF KISM 011121Z 0112/0212 08005KT P6SM BKN150
FM011700 07013KT P6SM VCSH SCT040 BKN150
FM012100 08015G23KT P6SM SCT100 BKN250
FM020200 08007KT P6SM FEW050 BKN250

Example: see airport list